^^
Saratoga-Weather Station Historical Data
Daily Summary for August 11, 2021 Units:  Metric    English   Both
Daily Weekly Monthly Yearly Custom
  High: Low: Average:
Temperature: 1.8 °C -5.2 °C -1.5 °C
Dew Point: 0 °C -6 °C -3.2 °C
Humidity: 96% 78% 89%
Wind Speed: 11.1km/h 0km/h 1.4km/h
Wind Gust: 16.1km/h - -
Wind- - SW
Pressure: 1024.4 hPa 1018.3 hPa -
Precipitation: 0.0 mm    
Historical Graphs
 
 
Tabular Data for August 11, 2021
Time Temperature Dew Point Pressure Wind Wind Speed Wind Gust Humidity Rainfall Rate (Hourly) solar
00:03 -3.3 °C -4.3 °C 1024.0 hPa Calm     93% 0.0 mm 0 W/m2
00:08 -3.4 °C -4.4 °C 1024.0 hPa Calm     93% 0.0 mm 0 W/m2
00:13 -3.4 °C -4.5 °C 1023.7 hPa Calm     92% 0.0 mm 0 W/m2
00:18 -3.5 °C -4.6 °C 1023.7 hPa Calm     92% 0.0 mm 0 W/m2
00:23 -3.6 °C -4.7 °C 1023.7 hPa Calm     92% 0.0 mm 0 W/m2
00:28 -3.6 °C -4.6 °C 1023.7 hPa Calm     93% 0.0 mm 0 W/m2
00:33 -3.6 °C -4.6 °C 1023.7 hPa Calm     93% 0.0 mm 0 W/m2
00:38 -3.6 °C -4.6 °C 1023.7 hPa Calm     93% 0.0 mm 0 W/m2
00:43 -3.6 °C -4.6 °C 1023.4 hPa Calm     93% 0.0 mm 0 W/m2
00:48 -3.6 °C -4.6 °C 1023.4 hPa Calm     93% 0.0 mm 0 W/m2
00:53 -3.7 °C -4.7 °C 1023.4 hPa Calm     93% 0.0 mm 0 W/m2
00:58 -3.7 °C -4.7 °C 1023.4 hPa Calm     93% 0.0 mm 0 W/m2
01:03 -3.8 °C -4.8 °C 1023.4 hPa Calm     93% 0.0 mm 0 W/m2
01:08 -3.9 °C -4.9 °C 1023.4 hPa Calm     93% 0.0 mm 0 W/m2
01:13 -3.9 °C -4.9 °C 1023.4 hPa Calm     93% 0.0 mm 0 W/m2
01:18 -4 °C -5 °C 1023.4 hPa Calm     93% 0.0 mm 0 W/m2
01:23 -4 °C -5 °C 1023.4 hPa Calm     93% 0.0 mm 0 W/m2
01:28 -4.1 °C -5.1 °C 1023.4 hPa Calm     93% 0.0 mm 0 W/m2
01:33 -4.1 °C -5.1 °C 1023.4 hPa Calm     93% 0.0 mm 0 W/m2
01:38 -4.1 °C -5.1 °C 1023.4 hPa Calm   1.6 km/h 93% 0.0 mm 0 W/m2
01:43 -4 °C -4.8 °C 1023.4 hPa Calm   1.6 km/h 94% 0.0 mm 0 W/m2
01:48 -4 °C -4.8 °C 1023.4 hPa Calm     94% 0.0 mm 0 W/m2
01:53 -4.1 °C -5.1 °C 1023.4 hPa Calm     93% 0.0 mm 0 W/m2
01:58 -4.1 °C -5.1 °C 1023.4 hPa Calm     93% 0.0 mm 0 W/m2
02:03 -4.2 °C -5.2 °C 1023.7 hPa Calm     93% 0.0 mm 0 W/m2
02:08 -4.3 °C -5.3 °C 1023.7 hPa Calm     93% 0.0 mm 0 W/m2
02:13 -4.3 °C -5.3 °C 1023.7 hPa Calm     93% 0.0 mm 0 W/m2
02:18 -4.3 °C -5.3 °C 1024.0 hPa Calm     93% 0.0 mm 0 W/m2
02:23 -4.3 °C -5.1 °C 1024.0 hPa Calm     94% 0.0 mm 0 W/m2
02:28 -4.4 °C -5.2 °C 1024.0 hPa Calm     94% 0.0 mm 0 W/m2
02:33 -4.4 °C -5.2 °C 1024.0 hPa Calm     94% 0.0 mm 0 W/m2
02:38 -4.4 °C -5.2 °C 1024.0 hPa Calm     94% 0.0 mm 0 W/m2
02:43 -4.4 °C -5.2 °C 1024.0 hPa Calm     94% 0.0 mm 0 W/m2
02:48 -4.3 °C -5.1 °C 1024.0 hPa Calm     94% 0.0 mm 0 W/m2
02:53 -4.4 °C -5.2 °C 1024.0 hPa Calm     94% 0.0 mm 0 W/m2
02:58 -4.4 °C -5.2 °C 1024.0 hPa Calm     94% 0.0 mm 0 W/m2
03:03 -4.4 °C -5.2 °C 1024.0 hPa Calm     94% 0.0 mm 0 W/m2
03:08 -4.4 °C -5.2 °C 1023.7 hPa SE 3.2 km/h 3.2 km/h 94% 0.0 mm 0 W/m2
03:13 -4.3 °C -5.1 °C 1023.7 hPa SE 1.4 km/h 1.6 km/h 94% 0.0 mm 0 W/m2
03:18 -4.2 °C -5 °C 1023.7 hPa Calm     94% 0.0 mm 0 W/m2
03:23 -4.2 °C -4.9 °C 1023.7 hPa Calm     95% 0.0 mm 0 W/m2
03:28 -4.2 °C -5 °C 1023.7 hPa Calm   1.6 km/h 94% 0.0 mm 0 W/m2
03:33 -4.2 °C -5 °C 1023.7 hPa Calm     94% 0.0 mm 0 W/m2
03:38 -4.3 °C -5.1 °C 1023.7 hPa Calm   1.6 km/h 94% 0.0 mm 0 W/m2
03:44 -4.3 °C -5.1 °C 1023.7 hPa Calm     94% 0.0 mm 0 W/m2
03:49 -4.3 °C -5.1 °C 1023.7 hPa Calm     94% 0.0 mm 0 W/m2
03:54 -4.4 °C -5.2 °C 1023.4 hPa Calm     94% 0.0 mm 0 W/m2
03:59 -4.4 °C -5.2 °C 1023.7 hPa Calm     94% 0.0 mm 0 W/m2
04:04 -4.4 °C -5.2 °C 1023.7 hPa Calm     94% 0.0 mm 0 W/m2
04:09 -4.4 °C -5.2 °C 1023.7 hPa Calm     94% 0.0 mm 0 W/m2
04:14 -4.5 °C -5.3 °C 1023.7 hPa Calm     94% 0.0 mm 0 W/m2
04:19 -4.6 °C -5.4 °C 1024.0 hPa Calm     94% 0.0 mm 0 W/m2
04:24 -4.6 °C -5.4 °C 1023.7 hPa Calm     94% 0.0 mm 0 W/m2
04:29 -4.6 °C -5.4 °C 1023.7 hPa Calm     94% 0.0 mm 0 W/m2
04:34 -4.6 °C -5.4 °C 1023.7 hPa Calm     94% 0.0 mm 0 W/m2
04:39 -4.7 °C -5.5 °C 1023.7 hPa Calm     94% 0.0 mm 0 W/m2
04:44 -4.7 °C -5.5 °C 1023.7 hPa Calm     94% 0.0 mm 0 W/m2
04:49 -4.7 °C -5.5 °C 1023.7 hPa Calm     94% 0.0 mm 0 W/m2
04:54 -4.8 °C -5.6 °C 1023.7 hPa Calm     94% 0.0 mm 0 W/m2
04:59 -4.8 °C -5.6 °C 1023.7 hPa Calm     94% 0.0 mm 0 W/m2
05:04 -4.8 °C -5.6 °C 1023.4 hPa Calm     94% 0.0 mm 0 W/m2
05:09 -4.8 °C -5.6 °C 1023.4 hPa Calm     94% 0.0 mm 0 W/m2
05:14 -4.9 °C -5.7 °C 1023.4 hPa Calm     94% 0.0 mm 0 W/m2
05:19 -4.8 °C -5.6 °C 1023.4 hPa Calm     94% 0.0 mm 0 W/m2
05:24 -4.8 °C -5.6 °C 1023.4 hPa Calm     94% 0.0 mm 0 W/m2
05:29 -4.8 °C -5.6 °C 1023.4 hPa Calm     94% 0.0 mm 0 W/m2
05:34 -4.8 °C -5.5 °C 1023.4 hPa Calm     95% 0.0 mm 0 W/m2
05:39 -4.8 °C -5.5 °C 1023.4 hPa Calm     95% 0.0 mm 0 W/m2
05:44 -4.8 °C -5.5 °C 1023.4 hPa Calm     95% 0.0 mm 0 W/m2
05:49 -4.8 °C -5.5 °C 1023.4 hPa Calm     95% 0.0 mm 0 W/m2
05:54 -4.9 °C -5.7 °C 1023.4 hPa Calm     94% 0.0 mm 0 W/m2
05:59 -4.9 °C -5.7 °C 1023.4 hPa Calm     94% 0.0 mm 0 W/m2
06:04 -5 °C -5.8 °C 1023.7 hPa Calm     94% 0.0 mm 0 W/m2
06:09 -5.1 °C -5.9 °C 1023.7 hPa Calm     94% 0.0 mm 0 W/m2
06:14 -5.1 °C -5.9 °C 1023.4 hPa Calm     94% 0.0 mm 0 W/m2
06:19 -5.2 °C -6 °C 1023.7 hPa Calm     94% 0.0 mm 0 W/m2
06:24 -5.2 °C -6 °C 1023.4 hPa Calm     94% 0.0 mm 0 W/m2
06:29 -5.2 °C -6 °C 1023.7 hPa Calm     94% 0.0 mm 0 W/m2
06:34 -5.2 °C -5.9 °C 1023.7 hPa Calm     95% 0.0 mm 0 W/m2
06:39 -5.2 °C -5.9 °C 1023.4 hPa Calm     95% 0.0 mm 0 W/m2
06:44 -5.2 °C -5.9 °C 1023.4 hPa Calm     95% 0.0 mm 0 W/m2
06:49 -5.2 °C -5.9 °C 1023.4 hPa Calm     95% 0.0 mm 0 W/m2
06:54 -5.1 °C -5.8 °C 1023.4 hPa Calm     95% 0.0 mm 0 W/m2
06:59 -5.1 °C -5.8 °C 1023.7 hPa Calm     95% 0.0 mm 0 W/m2
07:04 -5.1 °C -5.8 °C 1023.4 hPa Calm     95% 0.0 mm 0 W/m2
07:09 -5.1 °C -5.8 °C 1023.4 hPa Calm     95% 0.0 mm 0 W/m2
07:14 -5.1 °C -5.8 °C 1023.4 hPa Calm     95% 0.0 mm 0 W/m2
07:19 -5.1 °C -5.8 °C 1023.4 hPa Calm     95% 0.0 mm 0 W/m2
07:24 -5.1 °C -5.8 °C 1023.4 hPa Calm     95% 0.0 mm 0 W/m2
07:29 -5.1 °C -5.8 °C 1023.4 hPa Calm     95% 0.0 mm 0 W/m2
07:34 -5.1 °C -5.8 °C 1023.4 hPa Calm     95% 0.0 mm 0 W/m2
07:39 -5.1 °C -5.8 °C 1023.4 hPa Calm     95% 0.0 mm 0 W/m2
07:44 -5.1 °C -5.8 °C 1023.4 hPa Calm     95% 0.0 mm 0 W/m2
07:49 -5.1 °C -5.8 °C 1023.4 hPa Calm     95% 0.0 mm 0 W/m2
07:54 -5.1 °C -5.8 °C 1023.4 hPa Calm     95% 0.0 mm 0 W/m2
07:59 -5.1 °C -5.8 °C 1023.4 hPa Calm     95% 0.0 mm 0 W/m2
08:04 -5.1 °C -5.8 °C 1023.4 hPa Calm     95% 0.0 mm 0 W/m2
08:09 -5.1 °C -5.8 °C 1023.4 hPa Calm     95% 0.0 mm 0 W/m2
08:14 -5.1 °C -5.8 °C 1023.4 hPa Calm     95% 0.0 mm 0 W/m2
08:19 -5.2 °C -5.9 °C 1023.4 hPa Calm     95% 0.0 mm 0 W/m2
08:24 -5.2 °C -5.9 °C 1023.4 hPa Calm     95% 0.0 mm 0 W/m2
08:29 -5.2 °C -5.9 °C 1023.4 hPa Calm     95% 0.0 mm 0 W/m2
08:34 -5.2 °C -5.9 °C 1023.4 hPa Calm     95% 0.0 mm 5 W/m2
08:39 -5.2 °C -5.9 °C 1023.7 hPa Calm     95% 0.0 mm 7 W/m2
08:44 -5.2 °C -5.9 °C 1023.7 hPa Calm     95% 0.0 mm 7 W/m2
08:49 -5.2 °C -5.9 °C 1023.7 hPa Calm     95% 0.0 mm 9 W/m2
08:54 -5.2 °C -5.9 °C 1023.7 hPa Calm     95% 0.0 mm 11 W/m2
08:59 -5.1 °C -5.8 °C 1023.7 hPa SE 1.4 km/h 3.2 km/h 95% 0.0 mm 12 W/m2
09:04 -5 °C -5.7 °C 1023.7 hPa Calm     95% 0.0 mm 12 W/m2
09:09 -4.9 °C -5.6 °C 1023.7 hPa Calm   3.2 km/h 95% 0.0 mm 14 W/m2
09:14 -4.9 °C -5.6 °C 1023.7 hPa SE 1.4 km/h 1.6 km/h 95% 0.0 mm 14 W/m2
09:19 -4.8 °C -5.5 °C 1023.7 hPa Calm   1.6 km/h 95% 0.0 mm 16 W/m2
09:24 -4.8 °C -5.5 °C 1023.7 hPa Calm     95% 0.0 mm 16 W/m2
09:29 -4.8 °C -5.5 °C 1023.7 hPa Calm     95% 0.0 mm 16 W/m2
09:34 -4.8 °C -5.5 °C 1023.7 hPa Calm     95% 0.0 mm 18 W/m2
09:39 -4.7 °C -5.4 °C 1023.7 hPa Calm     95% 0.0 mm 18 W/m2
09:44 -4.7 °C -5.4 °C 1024.0 hPa Calm   1.6 km/h 95% 0.0 mm 19 W/m2
09:49 -4.6 °C -5.3 °C 1024.0 hPa Calm     95% 0.0 mm 18 W/m2
09:54 -4.6 °C -5.3 °C 1024.0 hPa Calm   1.6 km/h 95% 0.0 mm 19 W/m2
09:59 -4.4 °C -5.1 °C 1024.0 hPa Calm     95% 0.0 mm 21 W/m2
10:04 -4.2 °C -4.7 °C 1024.0 hPa ESE 4.7 km/h 4.8 km/h 96% 0.0 mm 23 W/m2
10:09 -3.9 °C -4.4 °C 1023.7 hPa ESE 1.4 km/h 3.2 km/h 96% 0.0 mm 21 W/m2
10:14 -3.7 °C -4.2 °C 1023.7 hPa ESE 3.2 km/h 4.8 km/h 96% 0.0 mm 21 W/m2
10:19 -3.5 °C -4 °C 1023.7 hPa ESE 3.2 km/h 3.2 km/h 96% 0.0 mm 23 W/m2
10:24 -3.4 °C -3.9 °C 1023.7 hPa Calm     96% 0.0 mm 25 W/m2
10:29 -3.3 °C -3.8 °C 1024.0 hPa Calm     96% 0.0 mm 26 W/m2
10:34 -3.3 °C -4 °C 1024.0 hPa ESE 3.2 km/h 6.4 km/h 95% 0.0 mm 30 W/m2
10:39 -3.2 °C -3.9 °C 1024.0 hPa ESE 3.2 km/h 4.8 km/h 95% 0.0 mm 26 W/m2
10:44 -3 °C -3.7 °C 1024.0 hPa ESE 1.4 km/h 6.4 km/h 95% 0.0 mm 28 W/m2
10:49 -2.9 °C -3.6 °C 1024.0 hPa ESE 1.4 km/h 3.2 km/h 95% 0.0 mm 28 W/m2
10:54 -2.8 °C -3.5 °C 1024.4 hPa ESE 1.4 km/h 1.6 km/h 95% 0.0 mm 28 W/m2
10:59 -2.8 °C -3.5 °C 1024.4 hPa Calm     95% 0.0 mm 26 W/m2
11:04 -2.7 °C -3.4 °C 1024.0 hPa Calm     95% 0.0 mm 25 W/m2
11:09 -2.6 °C -3.3 °C 1024.0 hPa Calm   1.6 km/h 95% 0.0 mm 25 W/m2
11:14 -2.6 °C -3.3 °C 1024.0 hPa Calm   1.6 km/h 95% 0.0 mm 25 W/m2
11:19 -2.4 °C -3.1 °C 1024.0 hPa ESE 3.2 km/h 4.8 km/h 95% 0.0 mm 26 W/m2
11:24 -2.2 °C -2.9 °C 1024.0 hPa Calm   3.2 km/h 95% 0.0 mm 25 W/m2
11:29 -1.9 °C -2.6 °C 1024.0 hPa SE 1.4 km/h 3.2 km/h 95% 0.0 mm 25 W/m2
11:34 -1.8 °C -2.5 °C 1024.0 hPa ENE 1.4 km/h 1.6 km/h 95% 0.0 mm 25 W/m2
11:39 -1.6 °C -2.3 °C 1024.0 hPa Calm   3.2 km/h 95% 0.0 mm 28 W/m2
11:44 -1.4 °C -2.2 °C 1024.0 hPa Calm   3.2 km/h 94% 0.0 mm 26 W/m2
11:49 -1.3 °C -2.1 °C 1024.0 hPa Calm     94% 0.0 mm 28 W/m2
11:54 -1.3 °C -2.3 °C 1024.0 hPa Calm     93% 0.0 mm 26 W/m2
11:59 -1.3 °C -2.3 °C 1024.0 hPa Calm   3.2 km/h 93% 0.0 mm 26 W/m2
12:04 -1.2 °C -2.2 °C 1023.7 hPa Calm   3.2 km/h 93% 0.0 mm 25 W/m2
12:09 -1.1 °C -2.1 °C 1023.7 hPa Calm   1.6 km/h 93% 0.0 mm 25 W/m2
12:14 -1 °C -2 °C 1023.7 hPa ESE 1.4 km/h 3.2 km/h 93% 0.0 mm 25 W/m2
12:19 -0.9 °C -1.9 °C 1023.4 hPa West 3.2 km/h 3.2 km/h 93% 0.0 mm 25 W/m2
12:24 -0.7 °C -1.8 °C 1023.4 hPa West 4.7 km/h 4.8 km/h 92% 0.0 mm 25 W/m2
12:29 -0.3 °C -1.7 °C 1023.4 hPa WSW 3.2 km/h 6.4 km/h 90% 0.0 mm 25 W/m2
12:35 -0.1 °C -1.8 °C 1023.4 hPa WSW 3.2 km/h 6.4 km/h 88% 0.0 mm 25 W/m2
12:40 0.3 °C -1.9 °C 1023.4 hPa WNW 3.2 km/h 4.8 km/h 85% 0.0 mm 25 W/m2
12:45 0.4 °C -2 °C 1023.4 hPa West 4.7 km/h 6.4 km/h 84% 0.0 mm 25 W/m2
12:50 0.6 °C -2 °C 1023.0 hPa NNW 6.4 km/h 9.7 km/h 83% 0.0 mm 25 W/m2
12:55 0.7 °C -2 °C 1023.0 hPa West 1.4 km/h 6.4 km/h 82% 0.0 mm 25 W/m2
13:00 0.7 °C -2 °C 1023.0 hPa WNW 4.7 km/h 6.4 km/h 82% 0.0 mm 26 W/m2
13:05 0.8 °C -1.9 °C 1023.0 hPa West 4.7 km/h 6.4 km/h 82% 0.0 mm 26 W/m2
13:10 0.8 °C -2.1 °C 1023.0 hPa WNW 6.4 km/h 6.4 km/h 81% 0.0 mm 26 W/m2
13:15 0.9 °C -2 °C 1022.7 hPa WNW 1.4 km/h 8 km/h 81% 0.0 mm 26 W/m2
13:20 0.9 °C -2 °C 1022.7 hPa WNW 3.2 km/h 4.8 km/h 81% 0.0 mm 26 W/m2
13:25 0.9 °C -2.2 °C 1022.7 hPa SW 4.7 km/h 6.4 km/h 80% 0.0 mm 28 W/m2
13:30 0.9 °C -2.2 °C 1022.7 hPa SW 3.2 km/h 4.8 km/h 80% 0.0 mm 26 W/m2
13:35 1 °C -2.1 °C 1022.4 hPa West 3.2 km/h 6.4 km/h 80% 0.0 mm 26 W/m2
13:40 1 °C -2.1 °C 1022.4 hPa West 3.2 km/h 9.7 km/h 80% 0.0 mm 26 W/m2
13:45 1.1 °C -2 °C 1022.4 hPa West 4.7 km/h 4.8 km/h 80% 0.0 mm 28 W/m2
13:50 1.1 °C -1.8 °C 1022.4 hPa WNW 6.4 km/h 6.4 km/h 81% 0.0 mm 28 W/m2
13:55 1.2 °C -1.9 °C 1022.4 hPa WSW 3.2 km/h 6.4 km/h 80% 0.0 mm 28 W/m2
14:00 1.2 °C -1.9 °C 1022.4 hPa West 1.4 km/h 4.8 km/h 80% 0.0 mm 32 W/m2
14:05 1.2 °C -1.9 °C 1022.4 hPa WNW 1.4 km/h 4.8 km/h 80% 0.0 mm 28 W/m2
14:10 1.2 °C -1.7 °C 1022.0 hPa WNW 4.7 km/h 11.3 km/h 81% 0.0 mm 28 W/m2
14:15 1.2 °C -1.7 °C 1022.0 hPa Calm   4.8 km/h 81% 0.0 mm 26 W/m2
14:20 1.2 °C -1.7 °C 1022.0 hPa Calm   1.6 km/h 81% 0.0 mm 26 W/m2
14:25 1.2 °C -1.7 °C 1021.7 hPa West 1.4 km/h 4.8 km/h 81% 0.0 mm 26 W/m2
14:30 1.2 °C -1.7 °C 1021.7 hPa Calm   1.6 km/h 81% 0.0 mm 25 W/m2
14:35 1.1 °C -1.8 °C 1021.7 hPa Calm   4.8 km/h 81% 0.0 mm 25 W/m2
14:40 1.1 °C -1.6 °C 1021.7 hPa WNW 3.2 km/h 4.8 km/h 82% 0.0 mm 32 W/m2
14:45 1.1 °C -1.6 °C 1021.7 hPa West 3.2 km/h 6.4 km/h 82% 0.0 mm 33 W/m2
14:50 1.2 °C -1.5 °C 1021.7 hPa West 1.4 km/h 4.8 km/h 82% 0.0 mm 35 W/m2
14:55 1.2 °C -1.7 °C 1021.7 hPa West 1.4 km/h 3.2 km/h 81% 0.0 mm 25 W/m2
15:00 1.1 °C -1.6 °C 1021.7 hPa Calm     82% 0.0 mm 25 W/m2
15:05 1 °C -1.7 °C 1021.3 hPa NNW 4.7 km/h 4.8 km/h 82% 0.0 mm 23 W/m2
15:10 1.1 °C -1.6 °C 1021.3 hPa Calm   1.6 km/h 82% 0.0 mm 32 W/m2
15:15 1.2 °C -1.7 °C 1021.7 hPa WNW 3.2 km/h 4.8 km/h 81% 0.0 mm 74 W/m2
15:20 1.3 °C -1.8 °C 1021.7 hPa Calm     80% 0.0 mm 63 W/m2
15:25 1.4 °C -1.7 °C 1021.7 hPa NW 6.4 km/h 6.4 km/h 80% 0.0 mm 33 W/m2
15:30 1.4 °C -1.8 °C 1021.7 hPa NW 4.7 km/h 6.4 km/h 79% 0.0 mm 37 W/m2
15:35 1.6 °C -1.6 °C 1021.7 hPa Calm   4.8 km/h 79% 0.0 mm 51 W/m2
15:40 1.6 °C -1.6 °C 1021.7 hPa WNW 4.7 km/h 6.4 km/h 79% 0.0 mm 40 W/m2
15:45 1.6 °C -1.8 °C 1021.7 hPa Calm   3.2 km/h 78% 0.0 mm 51 W/m2
15:50 1.6 °C -1.8 °C 1021.7 hPa WNW 1.4 km/h 6.4 km/h 78% 0.0 mm 47 W/m2
15:55 1.6 °C -1.8 °C 1021.7 hPa WNW 6.4 km/h 6.4 km/h 78% 0.0 mm 39 W/m2
16:00 1.6 °C -1.8 °C 1021.7 hPa Calm   4.8 km/h 78% 0.0 mm 37 W/m2
16:05 1.7 °C -1.7 °C 1021.7 hPa Calm   3.2 km/h 78% 0.0 mm 32 W/m2
16:10 1.7 °C -1.6 °C 1021.7 hPa Calm   4.8 km/h 79% 0.0 mm 30 W/m2
16:15 1.6 °C -1.6 °C 1021.7 hPa Calm     79% 0.0 mm 25 W/m2
16:20 1.6 °C -1.6 °C 1021.3 hPa Calm   4.8 km/h 79% 0.0 mm 21 W/m2
16:25 1.6 °C -1.8 °C 1021.3 hPa WSW 1.4 km/h 6.4 km/h 78% 0.0 mm 16 W/m2
16:30 1.6 °C -1.6 °C 1021.7 hPa NW 4.7 km/h 4.8 km/h 79% 0.0 mm 12 W/m2
16:35 1.6 °C -1.6 °C 1021.3 hPa NNW 1.4 km/h 4.8 km/h 79% 0.0 mm 11 W/m2
16:40 1.6 °C -1.6 °C 1021.3 hPa NE 1.4 km/h 3.2 km/h 79% 0.0 mm 7 W/m2
16:45 1.6 °C -1.6 °C 1021.3 hPa Calm   1.6 km/h 79% 0.0 mm 5 W/m2
16:50 1.6 °C -1.6 °C 1021.3 hPa NE 3.2 km/h 4.8 km/h 79% 0.0 mm 5 W/m2
16:55 1.6 °C -1.6 °C 1021.3 hPa NNE 1.4 km/h 3.2 km/h 79% 0.0 mm 0 W/m2
17:00 1.6 °C -1.6 °C 1021.0 hPa ENE 1.4 km/h 3.2 km/h 79% 0.0 mm 0 W/m2
17:05 1.6 °C -1.6 °C 1021.0 hPa Calm   3.2 km/h 79% 0.0 mm 0 W/m2
17:10 1.5 °C -1.7 °C 1021.3 hPa Calm   1.6 km/h 79% 0.0 mm 0 W/m2
17:16 1.4 °C -1.7 °C 1021.3 hPa Calm   3.2 km/h 80% 0.0 mm 0 W/m2
17:21 1.4 °C -1.7 °C 1021.3 hPa WNW 1.4 km/h 6.4 km/h 80% 0.0 mm 0 W/m2
17:26 1.4 °C -1.7 °C 1021.3 hPa Calm   1.6 km/h 80% 0.0 mm 0 W/m2
17:31 1.5 °C -1.6 °C 1021.0 hPa NW 1.4 km/h 6.4 km/h 80% 0.0 mm 0 W/m2
17:36 1.4 °C -1.7 °C 1021.0 hPa WNW 1.4 km/h 4.8 km/h 80% 0.0 mm 0 W/m2
17:41 1.5 °C -1.6 °C 1021.3 hPa Calm   9.7 km/h 80% 0.0 mm 0 W/m2
17:46 1.5 °C -1.6 °C 1021.3 hPa NNW 1.4 km/h 4.8 km/h 80% 0.0 mm 0 W/m2
17:51 1.6 °C -1.5 °C 1021.3 hPa NE 1.4 km/h 9.7 km/h 80% 0.0 mm 0 W/m2
17:56 1.6 °C -1.5 °C 1021.3 hPa Calm   9.7 km/h 80% 0.0 mm 0 W/m2
18:01 1.6 °C -1.5 °C 1021.3 hPa WNW 1.4 km/h 3.2 km/h 80% 0.0 mm 0 W/m2
18:06 1.6 °C -1.5 °C 1021.0 hPa Calm   3.2 km/h 80% 0.0 mm 0 W/m2
18:11 1.6 °C -1.5 °C 1020.7 hPa Calm   1.6 km/h 80% 0.0 mm 0 W/m2
18:16 1.6 °C -1.5 °C 1020.7 hPa Calm   3.2 km/h 80% 0.0 mm 0 W/m2
18:21 1.6 °C -1.6 °C 1021.0 hPa Calm   3.2 km/h 79% 0.0 mm 0 W/m2
18:26 1.6 °C -1.5 °C 1020.7 hPa Calm   3.2 km/h 80% 0.0 mm 0 W/m2
18:31 1.6 °C -1.5 °C 1020.7 hPa Calm   3.2 km/h 80% 0.0 mm 0 W/m2
18:36 1.6 °C -1.5 °C 1020.7 hPa East 3.2 km/h 3.2 km/h 80% 0.0 mm 0 W/m2
18:41 1.6 °C -1.5 °C 1020.7 hPa ENE 1.4 km/h 11.3 km/h 80% 0.0 mm 0 W/m2
18:46 1.6 °C -1.5 °C 1020.7 hPa SW 1.4 km/h 6.4 km/h 80% 0.0 mm 0 W/m2
18:51 1.6 °C -1.3 °C 1020.7 hPa North 3.2 km/h 11.3 km/h 81% 0.0 mm 0 W/m2
18:56 1.4 °C -1.5 °C 1020.7 hPa Calm   1.6 km/h 81% 0.0 mm 0 W/m2
19:01 1.4 °C -1.3 °C 1020.7 hPa SW 11.1 km/h 12.9 km/h 82% 0.0 mm 0 W/m2
19:06 1.4 °C -1.3 °C 1020.7 hPa WNW 4.7 km/h 4.8 km/h 82% 0.0 mm 0 W/m2
19:11 1.3 °C -1.4 °C 1020.7 hPa ENE 1.4 km/h 4.8 km/h 82% 0.0 mm 0 W/m2
19:16 1.3 °C -1.3 °C 1020.7 hPa West 1.4 km/h 11.3 km/h 83% 0.0 mm 0 W/m2
19:21 1.2 °C -1.2 °C 1020.7 hPa NNW 3.2 km/h 4.8 km/h 84% 0.0 mm 0 W/m2
19:26 1.2 °C -1.2 °C 1020.7 hPa NW 4.7 km/h 4.8 km/h 84% 0.0 mm 0 W/m2
19:31 1.2 °C -1 °C 1020.7 hPa NW 4.7 km/h 6.4 km/h 85% 0.0 mm 0 W/m2
19:36 1.2 °C -1 °C 1020.7 hPa West 3.2 km/h 6.4 km/h 85% 0.0 mm 0 W/m2
19:41 1.2 °C -1 °C 1020.7 hPa WNW 4.7 km/h 6.4 km/h 85% 0.0 mm 0 W/m2
19:46 1.2 °C -0.9 °C 1020.7 hPa NE 1.4 km/h 4.8 km/h 86% 0.0 mm 0 W/m2
19:51 1.2 °C -0.9 °C 1020.7 hPa WNW 4.7 km/h 6.4 km/h 86% 0.0 mm 0 W/m2
19:56 1.2 °C -0.9 °C 1020.7 hPa WSW 1.4 km/h 4.8 km/h 86% 0.0 mm 0 W/m2
20:01 1.2 °C -0.9 °C 1020.7 hPa North 3.2 km/h 4.8 km/h 86% 0.0 mm 0 W/m2
20:06 1.2 °C -0.9 °C 1020.7 hPa West 1.4 km/h 6.4 km/h 86% 0.0 mm 0 W/m2
20:11 1.2 °C -0.9 °C 1020.7 hPa West 1.4 km/h 4.8 km/h 86% 0.0 mm 0 W/m2
20:16 1.1 °C -1 °C 1020.3 hPa East 4.7 km/h 4.8 km/h 86% 0.0 mm 0 W/m2
20:21 1.1 °C -0.8 °C 1020.3 hPa WSW 4.7 km/h 6.4 km/h 87% 0.0 mm 0 W/m2
20:26 1.1 °C -0.8 °C 1020.3 hPa Calm   3.2 km/h 87% 0.0 mm 0 W/m2
20:31 1.1 °C -0.8 °C 1020.3 hPa NW 3.2 km/h 3.2 km/h 87% 0.0 mm 0 W/m2
20:36 1.1 °C -0.8 °C 1020.3 hPa WNW 1.4 km/h 4.8 km/h 87% 0.0 mm 0 W/m2
20:41 1.1 °C -0.8 °C 1020.3 hPa Calm   4.8 km/h 87% 0.0 mm 0 W/m2
20:46 1.1 °C -0.8 °C 1020.0 hPa East 3.2 km/h 8 km/h 87% 0.0 mm 0 W/m2
20:51 1.1 °C -0.7 °C 1020.0 hPa North 1.4 km/h 3.2 km/h 88% 0.0 mm 0 W/m2
20:57 1.1 °C -0.7 °C 1020.0 hPa NW 3.2 km/h 4.8 km/h 88% 0.0 mm 0 W/m2
21:02 1.1 °C -0.7 °C 1019.6 hPa Calm   6.4 km/h 88% 0.0 mm 0 W/m2
21:07 1.1 °C -0.7 °C 1019.6 hPa Calm   1.6 km/h 88% 0.0 mm 0 W/m2
21:12 1.1 °C -0.7 °C 1019.6 hPa WSW 1.4 km/h 3.2 km/h 88% 0.0 mm 0 W/m2
21:17 1.1 °C -0.7 °C 1019.6 hPa NNW 3.2 km/h 11.3 km/h 88% 0.0 mm 0 W/m2
21:22 1.2 °C -0.6 °C 1019.6 hPa North 1.4 km/h 6.4 km/h 88% 0.0 mm 0 W/m2
21:27 1.2 °C -0.6 °C 1019.6 hPa West 1.4 km/h 11.3 km/h 88% 0.0 mm 0 W/m2
21:32 1.2 °C -0.6 °C 1019.6 hPa NNW 1.4 km/h 9.7 km/h 88% 0.0 mm 0 W/m2
21:37 1.2 °C -0.6 °C 1019.6 hPa SW 1.4 km/h 4.8 km/h 88% 0.0 mm 0 W/m2
21:42 1.3 °C -0.5 °C 1019.3 hPa WNW 1.4 km/h 9.7 km/h 88% 0.0 mm 0 W/m2
21:47 1.3 °C -0.5 °C 1019.3 hPa West 11.1 km/h 14.5 km/h 88% 0.0 mm 0 W/m2
21:52 1.3 °C -0.5 °C 1019.3 hPa North 4.7 km/h 4.8 km/h 88% 0.0 mm 0 W/m2
21:57 1.3 °C -0.6 °C 1019.3 hPa West 3.2 km/h 14.5 km/h 87% 0.0 mm 0 W/m2
22:02 1.3 °C -0.5 °C 1019.3 hPa NW 3.2 km/h 11.3 km/h 88% 0.0 mm 0 W/m2
22:07 1.3 °C -0.5 °C 1019.6 hPa NW 4.7 km/h 6.4 km/h 88% 0.0 mm 0 W/m2
22:12 1.3 °C -0.5 °C 1019.3 hPa NW 1.4 km/h 8 km/h 88% 0.0 mm 0 W/m2
22:17 1.4 °C -0.4 °C 1019.6 hPa North 3.2 km/h 3.2 km/h 88% 0.0 mm 0 W/m2
22:22 1.4 °C -0.4 °C 1019.3 hPa SSE 1.4 km/h 8 km/h 88% 0.0 mm 0 W/m2
22:27 1.4 °C -0.4 °C 1019.0 hPa East 4.7 km/h 4.8 km/h 88% 0.0 mm 0 W/m2
22:32 1.4 °C -0.4 °C 1019.0 hPa NW 6.4 km/h 6.4 km/h 88% 0.0 mm 0 W/m2
22:37 1.4 °C -0.4 °C 1019.3 hPa NW 1.4 km/h 8 km/h 88% 0.0 mm 0 W/m2
22:42 1.4 °C -0.4 °C 1019.0 hPa Calm   3.2 km/h 88% 0.0 mm 0 W/m2
22:47 1.4 °C -0.4 °C 1019.0 hPa NNE 1.4 km/h 3.2 km/h 88% 0.0 mm 0 W/m2
22:52 1.5 °C -0.3 °C 1019.0 hPa WSW 1.4 km/h 3.2 km/h 88% 0.0 mm 0 W/m2
22:57 1.5 °C -0.3 °C 1018.6 hPa West 11.1 km/h 11.3 km/h 88% 0.0 mm 0 W/m2
23:02 1.6 °C -0.2 °C 1018.6 hPa NNE 1.4 km/h 4.8 km/h 88% 0.0 mm 0 W/m2
23:07 1.6 °C -0.2 °C 1018.6 hPa SW 11.1 km/h 16.1 km/h 88% 0.0 mm 0 W/m2
23:12 1.6 °C -0.2 °C 1018.6 hPa WNW 3.2 km/h 9.7 km/h 88% 0.0 mm 0 W/m2
23:17 1.7 °C -0.1 °C 1018.3 hPa Calm   6.4 km/h 88% 0.0 mm 0 W/m2
23:22 1.7 °C -0.1 °C 1018.6 hPa West 1.4 km/h 8 km/h 88% 0.0 mm 0 W/m2
23:27 1.7 °C -0.1 °C 1018.6 hPa NW 1.4 km/h 11.3 km/h 88% 0.0 mm 0 W/m2
23:32 1.7 °C -0.1 °C 1018.6 hPa NNE 3.2 km/h 6.4 km/h 88% 0.0 mm 0 W/m2
23:37 1.7 °C -0.1 °C 1018.3 hPa East 11.1 km/h 12.9 km/h 88% 0.0 mm 0 W/m2
23:42 1.8 °C 0 °C 1018.3 hPa WNW 1.4 km/h 8 km/h 88% 0.0 mm 0 W/m2
23:47 1.8 °C 0 °C 1018.3 hPa North 4.7 km/h 9.7 km/h 88% 0.0 mm 0 W/m2
23:52 1.8 °C 0 °C 1018.3 hPa NW 1.4 km/h 4.8 km/h 88% 0.0 mm 0 W/m2
23:57 1.8 °C 0 °C 1018.3 hPa NNW 3.2 km/h 14.5 km/h 88% 0.0 mm 0 W/m2
Juneau County Weather
Compliments of Weather Underground - 4 mb